createdAt,value
2022-12-01T00:00:28.179Z,49.20
2022-12-01T00:01:28.187Z,47.30
2022-12-01T00:02:28.321Z,48.80
2022-12-01T00:03:28.191Z,48.90
2022-12-01T00:04:28.139Z,48.70
2022-12-01T00:05:28.146Z,47.30
2022-12-01T00:06:28.113Z,49.00
2022-12-01T00:07:28.144Z,50.00
2022-12-01T00:08:28.107Z,49.60
2022-12-01T00:09:28.085Z,46.40
2022-12-01T00:10:28.051Z,49.60
2022-12-01T00:11:28.062Z,47.60
2022-12-01T00:12:28.034Z,48.80
2022-12-01T00:13:28.031Z,49.50
2022-12-01T00:14:28.005Z,48.90
2022-12-01T00:15:27.997Z,48.80
2022-12-01T00:16:28.022Z,48.90
2022-12-01T00:17:27.978Z,50.70
2022-12-01T00:18:27.954Z,50.80
2022-12-01T00:19:27.944Z,48.20
2022-12-01T00:20:27.935Z,50.20
2022-12-01T00:21:27.919Z,49.80
2022-12-01T00:22:27.937Z,49.10
2022-12-01T00:23:27.898Z,48.50
2022-12-01T00:24:27.883Z,48.50
2022-12-01T00:25:27.874Z,53.00
2022-12-01T00:26:27.855Z,47.60
2022-12-01T00:27:27.848Z,48.40
2022-12-01T00:28:27.827Z,52.10
2022-12-01T00:29:27.824Z,50.40
2022-12-01T00:30:27.821Z,47.20
2022-12-01T00:31:27.848Z,49.90
2022-12-01T00:32:27.784Z,48.20
2022-12-01T00:33:27.766Z,49.60
2022-12-01T00:34:27.756Z,49.70
2022-12-01T00:35:27.765Z,47.20
2022-12-01T00:36:27.747Z,47.90
2022-12-01T00:37:27.717Z,48.20
2022-12-01T00:38:27.706Z,48.90
2022-12-01T00:39:27.699Z,53.40
2022-12-01T00:40:27.687Z,47.40
2022-12-01T00:41:27.690Z,48.60
2022-12-01T00:42:27.661Z,49.50
2022-12-01T00:43:27.642Z,50.00
2022-12-01T00:44:27.648Z,47.90
2022-12-01T00:45:27.618Z,47.30
2022-12-01T00:46:27.645Z,52.60
2022-12-01T00:47:27.590Z,50.90
2022-12-01T00:48:27.580Z,47.10
2022-12-01T00:49:27.581Z,47.90
2022-12-01T00:50:27.549Z,47.50
2022-12-01T00:51:27.576Z,46.60
2022-12-01T00:52:27.525Z,46.50
2022-12-01T00:53:27.516Z,50.80
2022-12-01T00:54:27.495Z,45.40
2022-12-01T00:55:27.505Z,46.30
2022-12-01T00:56:27.484Z,47.10
2022-12-01T00:57:27.470Z,45.00
2022-12-01T00:58:27.448Z,46.70
2022-12-01T00:59:27.451Z,42.60
2022-12-01T01:00:27.426Z,46.40
2022-12-01T01:01:27.455Z,46.10
2022-12-01T01:02:27.497Z,42.20
2022-12-01T01:03:27.419Z,43.40
2022-12-01T01:04:27.388Z,41.70
2022-12-01T01:05:27.375Z,42.70
2022-12-01T01:06:27.338Z,44.60
2022-12-01T01:07:27.421Z,43.30
2022-12-01T01:08:27.315Z,44.50
2022-12-01T01:09:27.326Z,44.10
2022-12-01T01:10:27.295Z,43.90
2022-12-01T01:11:27.292Z,44.90
2022-12-01T01:12:27.273Z,43.50
2022-12-01T01:13:27.252Z,45.90
2022-12-01T01:14:27.243Z,44.50
2022-12-01T01:15:27.240Z,43.50
2022-12-01T01:16:27.265Z,43.20
2022-12-01T01:17:27.206Z,45.80
2022-12-01T01:18:27.213Z,44.60
2022-12-01T01:19:27.188Z,46.40
2022-12-01T01:20:27.158Z,42.90
2022-12-01T01:21:27.165Z,43.60
2022-12-01T01:22:27.137Z,45.10
2022-12-01T01:23:27.124Z,43.30
2022-12-01T01:24:27.153Z,47.10
2022-12-01T01:25:27.109Z,46.50
2022-12-01T01:26:27.089Z,43.90
2022-12-01T01:27:27.084Z,44.70
2022-12-01T01:28:27.057Z,43.40
2022-12-01T01:29:27.062Z,43.30
2022-12-01T01:30:27.108Z,45.60
2022-12-01T01:31:27.026Z,42.80
2022-12-01T01:32:27.013Z,43.80
2022-12-01T01:33:27.013Z,43.00
2022-12-01T01:34:26.997Z,40.10
2022-12-01T01:35:26.972Z,39.30
2022-12-01T01:36:26.960Z,41.00
2022-12-01T01:37:26.946Z,39.00
2022-12-01T01:38:26.933Z,37.80
2022-12-01T01:39:26.932Z,41.10
2022-12-01T01:40:26.932Z,39.70
2022-12-01T01:41:26.903Z,39.00
2022-12-01T01:42:26.888Z,40.40
2022-12-01T01:43:26.877Z,38.10
2022-12-01T01:44:26.862Z,39.40
2022-12-01T01:45:26.857Z,40.10
2022-12-01T01:46:26.922Z,38.90
2022-12-01T01:47:26.828Z,38.70
2022-12-01T01:48:26.816Z,39.70
2022-12-01T01:49:26.803Z,38.30
2022-12-01T01:50:26.785Z,37.30
2022-12-01T01:51:26.780Z,38.50
2022-12-01T01:52:26.758Z,38.10
2022-12-01T01:53:26.740Z,39.60
2022-12-01T01:54:26.763Z,41.30
2022-12-01T01:55:26.718Z,39.40
2022-12-01T01:56:26.718Z,41.10
2022-12-01T01:57:26.700Z,42.50
2022-12-01T01:58:26.680Z,42.00
2022-12-01T01:59:26.673Z,38.30
2022-12-01T02:00:26.667Z,42.50
2022-12-01T02:01:26.698Z,40.70
2022-12-01T02:02:26.678Z,40.80
2022-12-01T02:03:26.627Z,42.90
2022-12-01T02:04:26.605Z,43.10
2022-12-01T02:05:26.590Z,43.70
2022-12-01T02:06:26.574Z,43.20
2022-12-01T02:07:26.609Z,40.30
2022-12-01T02:08:26.563Z,40.90
2022-12-01T02:09:26.549Z,42.70
2022-12-01T02:10:26.521Z,38.70
2022-12-01T02:11:26.510Z,42.60
2022-12-01T02:12:26.498Z,45.40
2022-12-01T02:13:26.507Z,43.70
2022-12-01T02:14:26.472Z,43.00
2022-12-01T02:15:26.483Z,41.60
2022-12-01T02:16:26.502Z,42.10
2022-12-01T02:17:26.451Z,43.20
2022-12-01T02:18:26.423Z,44.40
2022-12-01T02:19:26.439Z,43.90
2022-12-01T02:20:26.397Z,44.80
2022-12-01T02:21:26.378Z,47.40
2022-12-01T02:22:26.368Z,44.50
2022-12-01T02:23:26.366Z,45.30
2022-12-01T02:24:26.349Z,45.70
2022-12-01T02:25:26.340Z,44.50
2022-12-01T02:26:26.322Z,46.60
2022-12-01T02:27:26.312Z,46.80
2022-12-01T02:28:26.294Z,50.00
2022-12-01T02:29:26.282Z,49.90
2022-12-01T02:30:26.368Z,48.20
2022-12-01T02:31:26.276Z,47.70
2022-12-01T02:32:26.241Z,49.70
2022-12-01T02:33:26.223Z,50.00
2022-12-01T02:34:26.211Z,51.90
2022-12-01T02:35:26.226Z,52.60
2022-12-01T02:36:26.191Z,50.60
2022-12-01T02:37:26.192Z,51.30
2022-12-01T02:38:26.160Z,50.70
2022-12-01T02:39:26.150Z,47.40
2022-12-01T02:40:26.134Z,51.20
2022-12-01T02:41:26.143Z,51.80
2022-12-01T02:42:26.119Z,53.60
2022-12-01T02:43:26.102Z,54.70
2022-12-01T02:44:26.081Z,50.40
2022-12-01T02:45:26.067Z,52.80
2022-12-01T02:46:26.112Z,51.50
2022-12-01T02:47:26.054Z,54.20
2022-12-01T02:48:26.034Z,51.20
2022-12-01T02:49:26.019Z,54.80
2022-12-01T02:50:26.000Z,56.30
2022-12-01T02:51:25.992Z,54.20
2022-12-01T02:52:25.995Z,54.10
2022-12-01T02:53:25.972Z,56.20
2022-12-01T02:54:25.963Z,60.90
2022-12-01T02:55:25.942Z,57.00
2022-12-01T02:56:25.933Z,55.30
2022-12-01T02:57:25.918Z,58.40
2022-12-01T02:58:25.909Z,55.70
2022-12-01T02:59:25.908Z,57.40
2022-12-01T03:00:25.890Z,58.20
2022-12-01T03:01:25.923Z,55.60
2022-12-01T03:02:25.945Z,57.30
2022-12-01T03:03:25.851Z,55.00
2022-12-01T03:04:25.832Z,56.70
2022-12-01T03:05:25.835Z,57.90
2022-12-01T03:06:25.804Z,60.10
2022-12-01T03:07:25.850Z,56.70
2022-12-01T03:08:25.777Z,58.80
2022-12-01T03:09:25.779Z,53.20
2022-12-01T03:10:25.761Z,63.00
2022-12-01T03:11:25.740Z,58.60
2022-12-01T03:12:25.746Z,59.80
2022-12-01T03:13:25.705Z,60.10
2022-12-01T03:14:25.692Z,58.00
2022-12-01T03:15:25.678Z,61.30
2022-12-01T03:16:25.755Z,59.00
2022-12-01T03:17:25.664Z,62.90
2022-12-01T03:18:25.655Z,59.70
2022-12-01T03:19:25.635Z,60.60
2022-12-01T03:20:25.631Z,62.60
2022-12-01T03:21:25.611Z,63.40
2022-12-01T03:22:25.602Z,64.50
2022-12-01T03:23:25.584Z,62.30
2022-12-01T03:24:25.576Z,65.90
2022-12-01T03:25:25.559Z,64.00
2022-12-01T03:26:25.550Z,61.10
2022-12-01T03:27:25.524Z,65.60
2022-12-01T03:28:25.549Z,66.00
2022-12-01T03:29:25.496Z,60.10
2022-12-01T03:30:25.508Z,62.60
2022-12-01T03:31:25.562Z,63.40
2022-12-01T03:32:25.488Z,60.30
2022-12-01T03:33:25.456Z,62.00
2022-12-01T03:34:25.438Z,63.10
2022-12-01T03:35:25.418Z,63.50
2022-12-01T03:36:25.416Z,61.00
2022-12-01T03:37:25.398Z,59.70
2022-12-01T03:38:25.388Z,63.80
2022-12-01T03:39:25.366Z,63.60
2022-12-01T03:40:25.357Z,64.00
2022-12-01T03:41:25.350Z,63.80
2022-12-01T03:42:25.343Z,64.60
2022-12-01T03:43:25.319Z,61.50
2022-12-01T03:44:25.307Z,64.00
2022-12-01T03:45:25.305Z,56.10
2022-12-01T03:46:25.324Z,61.20
2022-12-01T03:47:25.287Z,59.40
2022-12-01T03:48:25.256Z,63.40
2022-12-01T03:49:25.258Z,58.60
2022-12-01T03:50:25.228Z,62.20
2022-12-01T03:51:25.208Z,62.80
2022-12-01T03:52:25.207Z,62.30
2022-12-01T03:53:25.202Z,58.20
2022-12-01T03:54:25.187Z,63.10
2022-12-01T03:55:25.200Z,60.10
2022-12-01T03:56:25.156Z,59.50
2022-12-01T03:57:25.136Z,60.20
2022-12-01T03:58:25.127Z,64.90
2022-12-01T03:59:25.131Z,61.60
2022-12-01T04:00:25.104Z,63.80
2022-12-01T04:01:25.144Z,64.00
2022-12-01T04:02:25.102Z,60.50
2022-12-01T04:03:25.053Z,58.70
2022-12-01T04:04:25.049Z,58.70
2022-12-01T04:05:25.591Z,65.00
2022-12-01T04:06:25.024Z,57.60
2022-12-01T04:07:25.063Z,59.40
2022-12-01T04:08:25.007Z,60.80
2022-12-01T04:09:24.984Z,61.70
2022-12-01T04:10:24.972Z,59.10
2022-12-01T04:11:29.469Z,62.50
2022-12-01T04:12:24.960Z,60.60
2022-12-01T04:13:24.945Z,60.40
2022-12-01T04:14:24.949Z,58.60
2022-12-01T04:15:24.967Z,67.90
2022-12-01T04:16:24.974Z,62.10
2022-12-01T04:17:24.870Z,61.00
2022-12-01T04:18:24.935Z,60.80
2022-12-01T04:19:24.847Z,59.60
2022-12-01T04:20:24.853Z,59.80
2022-12-01T04:21:24.829Z,58.30
2022-12-01T04:22:24.835Z,62.50
2022-12-01T04:23:24.815Z,59.90
2022-12-01T04:24:24.787Z,59.20
2022-12-01T04:25:24.803Z,57.80
2022-12-01T04:26:24.785Z,63.60
2022-12-01T04:27:24.756Z,61.00
2022-12-01T04:28:24.818Z,59.90
2022-12-01T04:29:24.723Z,62.90
2022-12-01T04:30:24.720Z,57.30
2022-12-01T04:31:24.747Z,64.70
2022-12-01T04:32:24.752Z,63.10
2022-12-01T04:33:24.767Z,59.30
2022-12-01T04:34:24.662Z,60.50
2022-12-01T04:35:24.655Z,58.10
2022-12-01T04:36:24.634Z,64.80
2022-12-01T04:37:24.621Z,60.80
2022-12-01T04:38:30.066Z,60.50
2022-12-01T04:39:24.597Z,61.60
2022-12-01T04:40:24.594Z,56.60
2022-12-01T04:41:24.568Z,62.30
2022-12-01T04:42:24.555Z,63.00
2022-12-01T04:43:24.545Z,62.50
2022-12-01T04:44:26.832Z,66.00
2022-12-01T04:45:24.516Z,83.80
2022-12-01T04:46:24.620Z,79.50
2022-12-01T04:47:24.489Z,80.70
2022-12-01T04:48:24.492Z,69.40
2022-12-01T04:49:24.462Z,64.40
2022-12-01T04:50:24.453Z,73.10
2022-12-01T04:51:24.436Z,69.10
2022-12-01T04:52:24.428Z,65.70
2022-12-01T04:53:24.422Z,69.50
2022-12-01T04:54:24.402Z,65.90
2022-12-01T04:55:24.397Z,61.60
2022-12-01T04:56:24.374Z,66.10
2022-12-01T04:57:24.359Z,62.50
2022-12-01T04:58:24.355Z,59.30
2022-12-01T04:59:24.335Z,62.40
2022-12-01T05:00:24.407Z,65.90
2022-12-01T05:01:24.475Z,59.00
2022-12-01T05:02:24.403Z,56.30
2022-12-01T05:03:24.283Z,60.00
2022-12-01T05:04:24.276Z,60.00
2022-12-01T05:05:24.256Z,60.40
2022-12-01T05:06:24.252Z,62.50
2022-12-01T05:07:24.311Z,61.00
2022-12-01T05:08:24.222Z,58.70
2022-12-01T05:09:24.206Z,65.00
2022-12-01T05:10:24.206Z,59.30
2022-12-01T05:11:24.186Z,62.60
2022-12-01T05:12:24.170Z,58.90
2022-12-01T05:13:24.172Z,59.40
2022-12-01T05:14:24.160Z,57.20
2022-12-01T05:15:24.171Z,57.90
2022-12-01T05:16:24.154Z,58.30
2022-12-01T05:17:24.114Z,57.00
2022-12-01T05:18:24.147Z,56.80
2022-12-01T05:19:24.089Z,55.60
2022-12-01T05:20:24.068Z,59.30
2022-12-01T05:21:24.064Z,60.30
2022-12-01T05:22:42.876Z,55.60
2022-12-01T05:23:24.145Z,59.70
2022-12-01T05:24:24.044Z,59.00
2022-12-01T05:25:24.014Z,59.00
2022-12-01T05:26:24.013Z,61.10
2022-12-01T05:27:23.974Z,60.20
2022-12-01T05:28:23.979Z,55.90
2022-12-01T05:29:23.992Z,53.40
2022-12-01T05:30:28.379Z,56.10
2022-12-01T05:31:24.047Z,60.00
2022-12-01T05:32:23.912Z,56.50
2022-12-01T05:33:23.909Z,62.40
2022-12-01T05:34:23.891Z,61.00
2022-12-01T05:35:23.885Z,56.90
2022-12-01T05:36:23.862Z,57.00
2022-12-01T05:37:23.845Z,59.80
2022-12-01T05:38:23.844Z,58.40
2022-12-01T05:39:23.824Z,60.20
2022-12-01T05:40:23.830Z,63.50
2022-12-01T05:41:23.810Z,53.30
2022-12-01T05:42:23.804Z,59.30
2022-12-01T05:43:28.777Z,55.40
2022-12-01T05:44:23.804Z,55.90
2022-12-01T05:45:23.836Z,59.10
2022-12-01T05:46:23.956Z,60.40
2022-12-01T05:47:23.774Z,59.30
2022-12-01T05:48:23.706Z,56.60
2022-12-01T05:49:23.710Z,56.60
2022-12-01T05:50:23.679Z,56.70
2022-12-01T05:51:23.669Z,55.50
2022-12-01T05:52:23.653Z,55.60
2022-12-01T05:53:23.646Z,58.60
2022-12-01T05:54:23.649Z,55.00
2022-12-01T05:55:23.702Z,53.80
2022-12-01T05:56:23.599Z,57.50
2022-12-01T05:57:23.602Z,73.00
2022-12-01T05:58:23.575Z,75.00
2022-12-01T05:59:23.560Z,83.20
2022-12-01T06:00:23.564Z,65.20
2022-12-01T06:01:23.534Z,66.80
2022-12-01T06:02:23.749Z,59.20
2022-12-01T06:03:23.512Z,50.90
2022-12-01T06:04:23.575Z,54.30
2022-12-01T06:05:23.485Z,55.20
2022-12-01T06:06:23.505Z,52.80
2022-12-01T06:07:23.600Z,50.90
2022-12-01T06:08:23.481Z,50.70
2022-12-01T06:09:23.438Z,51.40
2022-12-01T06:10:23.421Z,50.60
2022-12-01T06:11:23.472Z,51.40
2022-12-01T06:12:23.436Z,55.20
2022-12-01T06:13:23.395Z,50.80
2022-12-01T06:14:23.385Z,52.20
2022-12-01T06:15:23.385Z,53.20
2022-12-01T06:16:23.381Z,50.80
2022-12-01T06:17:23.334Z,49.70
2022-12-01T06:18:23.370Z,50.70
2022-12-01T06:19:23.322Z,53.00
2022-12-01T06:20:23.337Z,47.00
2022-12-01T06:21:23.437Z,52.20
2022-12-01T06:22:23.283Z,49.60
2022-12-01T06:23:27.602Z,47.90
2022-12-01T06:24:23.290Z,46.90
2022-12-01T06:25:23.285Z,51.90
2022-12-01T06:26:23.231Z,49.40
2022-12-01T06:27:23.257Z,48.90
2022-12-01T06:28:23.214Z,48.80
2022-12-01T06:29:23.209Z,47.40
2022-12-01T06:30:23.187Z,51.10
2022-12-01T06:31:23.197Z,49.20
2022-12-01T06:32:23.175Z,53.50
2022-12-01T06:33:23.151Z,50.90
2022-12-01T06:34:23.177Z,47.20
2022-12-01T06:35:23.127Z,46.80
2022-12-01T06:36:23.127Z,52.60
2022-12-01T06:37:23.080Z,49.50
2022-12-01T06:38:23.083Z,51.70
2022-12-01T06:39:23.135Z,49.00
2022-12-01T06:40:52.157Z,51.10
2022-12-01T06:41:53.168Z,49.10
2022-12-01T06:42:53.128Z,49.20
2022-12-01T06:43:53.118Z,45.20
2022-12-01T06:44:53.118Z,45.70
2022-12-01T06:45:57.770Z,44.40
2022-12-01T06:46:53.097Z,43.90
2022-12-01T06:47:53.090Z,45.00
2022-12-01T06:48:54.251Z,46.70
2022-12-01T06:49:53.224Z,44.40
2022-12-01T06:50:53.045Z,43.80
2022-12-01T06:51:53.052Z,46.80
2022-12-01T06:52:53.008Z,58.00
2022-12-01T06:53:52.995Z,50.40
2022-12-01T06:54:52.980Z,63.90
2022-12-01T06:55:52.963Z,73.50
2022-12-01T06:56:52.953Z,67.80
2022-12-01T06:57:52.947Z,57.90
2022-12-01T06:58:52.936Z,56.30
2022-12-01T06:59:53.159Z,50.10
2022-12-01T07:00:53.009Z,48.00
2022-12-01T07:01:52.931Z,50.50
2022-12-01T07:02:52.926Z,48.10
2022-12-01T07:03:52.912Z,50.20
2022-12-01T07:04:52.849Z,48.30
2022-12-01T07:05:52.846Z,49.10
2022-12-01T07:06:52.832Z,51.00
2022-12-01T07:07:59.172Z,50.70
2022-12-01T07:08:52.828Z,53.40
2022-12-01T07:09:52.792Z,47.30
2022-12-01T07:10:52.789Z,51.40
2022-12-01T07:11:52.773Z,51.10
2022-12-01T07:12:52.804Z,51.70
2022-12-01T07:13:52.747Z,51.50
2022-12-01T07:14:52.725Z,49.60
2022-12-01T07:15:52.718Z,44.60
2022-12-01T07:16:52.828Z,50.30
2022-12-01T07:17:52.686Z,46.40
2022-12-01T07:18:52.730Z,47.70
2022-12-01T07:19:52.683Z,52.80
2022-12-01T07:20:52.674Z,48.70
2022-12-01T07:21:52.629Z,47.20
2022-12-01T07:22:52.637Z,50.20
2022-12-01T07:23:52.611Z,49.60
2022-12-01T07:24:52.609Z,49.10
2022-12-01T07:25:52.600Z,51.80
2022-12-01T07:26:52.576Z,49.00
2022-12-01T07:27:52.553Z,45.60
2022-12-01T07:28:52.539Z,45.50
2022-12-01T07:29:52.525Z,44.00
2022-12-01T07:30:52.555Z,45.40
2022-12-01T07:31:52.504Z,42.60
2022-12-01T07:32:52.485Z,43.40
2022-12-01T07:33:52.470Z,43.80
2022-12-01T07:42:33.990Z,44.30
2022-12-01T07:43:34.981Z,44.10
2022-12-01T07:44:34.992Z,43.20
2022-12-01T07:45:34.979Z,42.00
2022-12-01T07:46:35.057Z,40.50
2022-12-01T07:47:34.923Z,41.20
2022-12-01T07:48:34.918Z,41.90
2022-12-01T07:49:34.913Z,42.70
2022-12-01T07:50:34.916Z,44.60
2022-12-01T07:51:35.007Z,44.70
2022-12-01T07:56:08.400Z,43.70
2022-12-01T07:57:04.214Z,44.40
2022-12-01T07:58:04.248Z,44.50
2022-12-01T07:59:04.194Z,45.50
2022-12-01T08:00:04.121Z,45.40
2022-12-01T08:01:04.232Z,46.50
2022-12-01T08:02:04.248Z,42.60
2022-12-01T08:03:04.157Z,49.10
2022-12-01T08:04:04.086Z,48.20
2022-12-01T08:05:04.068Z,45.90
2022-12-01T08:06:04.057Z,47.20
2022-12-01T08:07:04.055Z,47.00
2022-12-01T08:08:04.090Z,48.30
2022-12-01T08:09:04.020Z,46.20
2022-12-01T08:10:04.033Z,48.20
2022-12-01T08:11:04.015Z,51.90
2022-12-01T08:12:03.987Z,50.00
2022-12-01T08:13:03.971Z,49.80
2022-12-01T08:14:03.962Z,47.50
2022-12-01T08:15:03.938Z,53.60
2022-12-01T08:16:04.036Z,52.30
2022-12-01T08:17:03.936Z,49.80
2022-12-01T08:18:03.895Z,44.70
2022-12-01T08:19:03.896Z,46.00
2022-12-01T08:20:03.883Z,50.20
2022-12-01T08:21:03.862Z,47.50
2022-12-01T08:22:03.888Z,46.70
2022-12-01T08:23:03.835Z,48.70
2022-12-01T08:24:03.885Z,50.00
2022-12-01T08:25:11.566Z,50.00
2022-12-01T08:26:03.792Z,49.90
2022-12-01T08:27:03.966Z,45.60
2022-12-01T08:28:03.815Z,49.00
2022-12-01T08:29:03.892Z,46.50
2022-12-01T08:30:04.434Z,44.60
2022-12-01T08:31:04.530Z,47.60
2022-12-01T08:32:03.772Z,45.10
2022-12-01T08:33:03.760Z,47.10
2022-12-01T08:34:03.786Z,46.50
2022-12-01T08:35:03.718Z,46.80
2022-12-01T08:36:03.683Z,50.70
2022-12-01T08:37:03.691Z,45.20
2022-12-01T08:38:03.746Z,47.80
2022-12-01T08:39:03.728Z,46.10
2022-12-01T08:40:03.766Z,48.10
2022-12-01T08:41:03.638Z,50.10
2022-12-01T08:42:03.716Z,53.70
2022-12-01T08:43:03.688Z,56.80
2022-12-01T08:44:03.804Z,65.50
2022-12-01T08:45:03.639Z,54.50
2022-12-01T08:46:03.760Z,57.50
2022-12-01T08:47:03.641Z,51.10
2022-12-01T08:48:03.631Z,50.90
2022-12-01T08:49:03.525Z,48.90
2022-12-01T08:50:03.593Z,46.60
2022-12-01T08:51:03.517Z,51.60
2022-12-01T08:52:03.535Z,48.00
2022-12-01T08:53:03.569Z,46.20
2022-12-01T08:54:03.468Z,46.60
2022-12-01T08:55:03.446Z,45.30
2022-12-01T08:56:03.499Z,48.40
2022-12-01T08:57:03.442Z,44.10
2022-12-01T08:58:03.497Z,52.90
2022-12-01T08:59:03.423Z,48.30
2022-12-01T09:00:03.435Z,48.10
2022-12-01T09:01:03.398Z,47.80
2022-12-01T09:02:06.956Z,51.70
2022-12-01T09:03:03.519Z,50.40
2022-12-01T09:05:29.215Z,46.90
2022-12-01T09:06:30.211Z,49.00
2022-12-01T09:07:30.156Z,52.80
2022-12-01T09:08:30.076Z,48.70
2022-12-01T09:09:30.064Z,45.70
2022-12-01T09:10:30.173Z,47.80
2022-12-01T09:11:30.051Z,49.60
2022-12-01T09:12:30.038Z,45.30
2022-12-01T09:13:30.019Z,46.40
2022-12-01T09:14:30.037Z,46.40
2022-12-01T09:15:29.981Z,44.80
2022-12-01T09:16:30.108Z,47.40
2022-12-01T09:17:30.042Z,46.20
2022-12-01T09:18:29.951Z,47.00
2022-12-01T09:19:29.940Z,45.30
2022-12-01T09:20:29.944Z,46.60
2022-12-01T09:21:29.907Z,48.60
2022-12-01T09:22:29.908Z,49.40
2022-12-01T09:23:29.907Z,42.90
2022-12-01T09:24:29.881Z,46.50
2022-12-01T09:25:29.860Z,45.30
2022-12-01T09:26:29.873Z,45.90
2022-12-01T09:27:29.843Z,46.30
2022-12-01T09:28:29.842Z,49.20
2022-12-01T09:29:29.824Z,45.10
2022-12-01T09:30:29.822Z,46.80
2022-12-01T09:31:29.850Z,45.50
2022-12-01T09:32:29.801Z,44.80
2022-12-01T09:33:29.761Z,48.00
2022-12-01T09:34:29.757Z,42.70
2022-12-01T09:35:29.736Z,46.50
2022-12-01T09:36:29.736Z,45.80
2022-12-01T09:37:29.716Z,44.40
2022-12-01T09:38:29.694Z,43.50
2022-12-01T09:39:29.793Z,46.00
2022-12-01T09:40:29.682Z,47.80
2022-12-01T09:41:29.682Z,47.50
2022-12-01T09:42:35.195Z,46.30
2022-12-01T09:43:29.643Z,49.80
2022-12-01T09:44:29.641Z,56.60
2022-12-01T09:45:29.628Z,55.40
2022-12-01T09:46:29.706Z,56.60
2022-12-01T09:47:29.624Z,55.20
2022-12-01T09:48:29.581Z,48.20
2022-12-01T09:49:29.568Z,45.80
2022-12-01T09:50:29.546Z,43.40
2022-12-01T09:51:29.631Z,43.50
2022-12-01T09:52:29.532Z,45.70
2022-12-01T09:53:29.553Z,42.80
2022-12-01T09:54:29.510Z,44.40
2022-12-01T09:55:29.486Z,45.30
2022-12-01T09:56:29.482Z,41.10
2022-12-01T09:57:29.465Z,41.70
2022-12-01T09:58:29.459Z,47.90
2022-12-01T09:59:29.446Z,42.70
2022-12-01T10:00:29.431Z,41.90
2022-12-01T10:01:29.455Z,43.60
2022-12-01T10:02:29.486Z,40.00
2022-12-01T10:03:29.392Z,41.50
2022-12-01T10:04:29.365Z,44.00
2022-12-01T10:05:29.456Z,41.30
2022-12-01T10:06:29.521Z,42.40
2022-12-01T10:07:29.405Z,45.10
2022-12-01T10:08:29.342Z,44.20
2022-12-01T10:09:29.317Z,53.30
2022-12-01T10:10:29.299Z,49.60
2022-12-01T10:11:29.301Z,59.80
2022-12-01T10:12:29.267Z,54.00
2022-12-01T10:13:29.268Z,59.30
2022-12-01T10:14:29.242Z,52.40
2022-12-01T10:15:29.235Z,51.80
2022-12-01T10:16:29.294Z,44.90
2022-12-01T10:17:29.209Z,47.80
2022-12-01T10:18:29.222Z,42.50
2022-12-01T10:19:29.181Z,42.70
2022-12-01T10:20:29.170Z,42.90
2022-12-01T10:21:29.172Z,41.40
2022-12-01T10:22:29.183Z,39.10
2022-12-01T10:23:29.154Z,41.00
2022-12-01T10:24:29.133Z,45.60
2022-12-01T10:25:29.113Z,41.50
2022-12-01T10:26:29.121Z,44.80
2022-12-01T10:27:29.092Z,42.00
2022-12-01T10:28:29.074Z,44.40
2022-12-01T10:29:29.076Z,40.90
2022-12-01T10:30:29.044Z,42.40
2022-12-01T10:31:29.138Z,42.70
2022-12-01T10:32:29.019Z,41.30
2022-12-01T10:33:29.044Z,42.40
2022-12-01T10:34:28.993Z,39.70
2022-12-01T10:35:28.980Z,41.10
2022-12-01T10:36:28.981Z,40.50
2022-12-01T10:37:29.024Z,42.10
2022-12-01T10:38:28.979Z,40.20
2022-12-01T10:39:28.934Z,40.20
2022-12-01T10:40:28.933Z,40.50
2022-12-01T10:41:28.935Z,40.60
2022-12-01T10:42:28.906Z,40.50
2022-12-01T10:43:28.899Z,38.20
2022-12-01T10:44:28.868Z,42.10
2022-12-01T10:45:28.958Z,38.90
2022-12-01T10:46:28.884Z,39.30
2022-12-01T10:47:28.889Z,40.90
2022-12-01T10:48:28.816Z,39.80
2022-12-01T10:49:28.862Z,42.70
2022-12-01T10:50:28.807Z,38.90
2022-12-01T10:51:28.788Z,41.80
2022-12-01T10:52:28.759Z,42.20
2022-12-01T10:53:28.775Z,38.50
2022-12-01T10:54:28.765Z,43.10
2022-12-01T10:55:28.724Z,49.70
2022-12-01T10:56:28.717Z,42.40
2022-12-01T10:57:28.698Z,55.40
2022-12-01T10:58:28.692Z,42.40
2022-12-01T10:59:28.687Z,44.00
2022-12-01T11:00:58.108Z,42.30
2022-12-01T11:01:28.782Z,45.10
2022-12-01T11:02:28.820Z,45.10
2022-12-01T11:03:28.865Z,39.40
2022-12-01T11:04:28.612Z,37.90
2022-12-01T11:05:28.599Z,37.70
2022-12-01T11:06:28.592Z,39.10
2022-12-01T11:07:28.652Z,39.10
2022-12-01T11:08:28.551Z,39.20
2022-12-01T11:09:28.548Z,43.10
2022-12-01T11:10:28.532Z,39.80
2022-12-01T11:11:28.517Z,39.10
2022-12-01T11:12:28.523Z,38.30
2022-12-01T11:13:28.499Z,40.40
2022-12-01T11:14:28.491Z,38.00
2022-12-01T11:15:28.485Z,34.80
2022-12-01T11:16:28.493Z,36.10
2022-12-01T11:17:28.455Z,38.60
2022-12-01T11:18:28.426Z,41.50
2022-12-01T11:19:28.497Z,38.20
2022-12-01T11:20:28.508Z,38.70
2022-12-01T11:21:28.425Z,37.50
2022-12-01T11:22:28.388Z,35.30
2022-12-01T11:23:28.506Z,36.80
2022-12-01T11:24:28.380Z,40.30
2022-12-01T11:25:28.336Z,34.80
2022-12-01T11:26:28.328Z,37.50
2022-12-01T11:27:28.337Z,36.70
2022-12-01T11:28:28.310Z,38.10
2022-12-01T11:29:28.351Z,36.60
2022-12-01T11:30:28.318Z,35.50
2022-12-01T11:31:28.346Z,37.10
2022-12-01T11:32:28.250Z,36.10
2022-12-01T11:33:28.237Z,36.90
2022-12-01T11:34:28.223Z,36.20
2022-12-01T11:35:28.242Z,36.70
2022-12-01T11:36:28.218Z,39.90
2022-12-01T11:37:28.212Z,40.20
2022-12-01T11:38:29.656Z,34.70
2022-12-01T11:39:28.168Z,36.80
2022-12-01T11:40:28.151Z,36.70
2022-12-01T11:41:28.161Z,40.40
2022-12-01T11:42:28.139Z,37.40
2022-12-01T11:43:28.143Z,35.80
2022-12-01T11:44:50.476Z,37.20
2022-12-01T11:45:28.145Z,37.60
2022-12-01T11:46:28.078Z,37.40
2022-12-01T11:47:28.068Z,37.20
2022-12-01T11:48:28.057Z,37.90
2022-12-01T11:49:28.050Z,38.60
2022-12-01T11:50:28.036Z,44.70
2022-12-01T11:51:28.065Z,50.10
2022-12-01T11:52:28.050Z,48.40
2022-12-01T11:53:28.033Z,45.00
2022-12-01T11:54:27.991Z,43.60
2022-12-01T11:55:28.020Z,37.80
2022-12-01T11:56:27.964Z,39.50
2022-12-01T11:57:35.418Z,37.50
2022-12-01T11:58:28.083Z,37.00
2022-12-01T11:59:27.950Z,37.30
2022-12-01T12:00:27.928Z,38.80
2022-12-01T12:01:27.884Z,38.50
2022-12-01T12:02:27.927Z,36.40
2022-12-01T12:03:28.051Z,35.50
2022-12-01T12:04:27.872Z,39.00
2022-12-01T12:05:27.849Z,33.70
2022-12-01T12:06:43.206Z,38.10
2022-12-01T12:07:27.846Z,36.10
2022-12-01T12:08:27.937Z,37.00
2022-12-01T12:09:27.810Z,37.90
2022-12-01T12:10:27.834Z,34.70
2022-12-01T12:11:27.774Z,35.40
2022-12-01T12:12:27.832Z,37.10
2022-12-01T12:13:27.768Z,37.20
2022-12-01T12:14:27.773Z,40.20
2022-12-01T12:15:27.806Z,36.40
2022-12-01T12:20:00.356Z,35.60
2022-12-01T12:20:40.677Z,34.90
2022-12-01T12:23:08.451Z,34.70
2022-12-01T12:24:09.427Z,32.30
2022-12-01T12:25:10.578Z,36.70
2022-12-01T12:26:09.218Z,34.30
2022-12-01T12:27:09.112Z,34.80
2022-12-01T12:29:53.101Z,32.70
2022-12-01T12:35:34.504Z,34.30
2022-12-01T12:36:35.452Z,34.30
2022-12-01T12:37:35.363Z,36.50
2022-12-01T12:38:35.532Z,36.90
2022-12-01T12:41:14.105Z,34.60
2022-12-01T12:42:15.157Z,35.90
2022-12-01T12:43:15.109Z,34.90
2022-12-01T12:44:15.065Z,33.80
2022-12-01T12:45:15.039Z,36.20
2022-12-01T12:47:54.163Z,36.40
2022-12-01T12:49:18.771Z,34.70
2022-12-01T12:59:57.384Z,32.80
2022-12-01T13:02:13.067Z,34.40
2022-12-01T13:03:14.193Z,36.20
2022-12-01T13:06:00.271Z,36.80
2022-12-01T13:07:02.441Z,37.20
2022-12-01T13:08:01.255Z,33.70
2022-12-01T13:09:01.180Z,33.70
2022-12-01T13:10:01.232Z,38.30
2022-12-01T13:11:01.166Z,40.40
2022-12-01T13:12:01.249Z,32.80
2022-12-01T13:13:01.120Z,34.10
2022-12-01T13:14:01.144Z,36.90
2022-12-01T13:15:01.595Z,37.40
2022-12-01T13:16:01.229Z,34.20
2022-12-01T13:17:01.071Z,37.40
2022-12-01T13:18:01.061Z,39.00
2022-12-01T13:19:01.055Z,35.00
2022-12-01T13:20:01.106Z,34.00
2022-12-01T13:21:01.057Z,36.50
2022-12-01T13:22:01.062Z,33.80
2022-12-01T13:23:00.995Z,34.90
2022-12-01T13:24:00.989Z,34.20
2022-12-01T13:25:01.002Z,32.00
2022-12-01T13:26:00.957Z,35.10
2022-12-01T13:27:00.957Z,36.70
2022-12-01T13:28:00.928Z,35.60
2022-12-01T13:29:00.919Z,33.60
2022-12-01T13:30:00.928Z,35.90
2022-12-01T13:31:00.963Z,40.90
2022-12-01T13:32:00.882Z,37.40
2022-12-01T13:33:00.866Z,35.10